createdAt,value
2018-06-09T00:01:30.611Z,20.82
2018-06-09T00:03:59.631Z,20.78
2018-06-09T00:06:28.635Z,20.70
2018-06-09T00:08:57.605Z,20.69
2018-06-09T00:11:26.613Z,20.64
2018-06-09T00:13:55.728Z,20.61
2018-06-09T00:16:24.691Z,20.57
2018-06-09T00:18:53.757Z,20.47
2018-06-09T00:21:22.769Z,20.44
2018-06-09T00:23:51.750Z,20.45
2018-06-09T00:26:20.816Z,20.43
2018-06-09T00:28:49.844Z,20.39
2018-06-09T00:31:18.801Z,20.33
2018-06-09T00:33:47.810Z,20.32
2018-06-09T00:36:16.775Z,20.29
2018-06-09T00:38:45.755Z,20.25
2018-06-09T00:41:14.758Z,20.24
2018-06-09T00:43:43.788Z,20.23
2018-06-09T00:46:12.865Z,20.21
2018-06-09T00:48:41.897Z,20.22
2018-06-09T00:51:10.874Z,20.19
2018-06-09T00:53:40.169Z,20.18
2018-06-09T00:56:46.888Z,20.22
2018-06-09T00:59:15.888Z,20.24
2018-06-09T01:01:44.860Z,20.19
2018-06-09T01:04:13.870Z,20.15
2018-06-09T01:06:42.833Z,20.17
2018-06-09T01:09:12.323Z,20.19
2018-06-09T01:11:41.308Z,20.21
2018-06-09T01:14:10.655Z,20.17
2018-06-09T01:16:39.750Z,20.19
2018-06-09T01:19:09.312Z,20.18
2018-06-09T01:21:38.285Z,20.16
2018-06-09T01:24:07.418Z,20.11
2018-06-09T01:26:36.439Z,20.11
2018-06-09T01:29:05.984Z,20.06
2018-06-09T01:31:34.976Z,20.06
2018-06-09T01:34:04.037Z,19.98
2018-06-09T01:36:33.128Z,19.85
2018-06-09T01:39:02.068Z,19.84
2018-06-09T01:41:31.091Z,19.78
2018-06-09T01:44:00.145Z,19.75
2018-06-09T01:46:29.214Z,19.71
2018-06-09T01:48:58.209Z,19.69
2018-06-09T01:51:27.221Z,19.69
2018-06-09T01:53:56.246Z,19.62
2018-06-09T01:56:25.304Z,19.65
2018-06-09T01:58:54.380Z,19.62
2018-06-09T02:01:23.824Z,19.60
2018-06-09T02:03:52.849Z,19.53
2018-06-09T02:06:22.018Z,19.48
2018-06-09T02:08:51.144Z,19.48
2018-06-09T02:11:20.176Z,19.39
2018-06-09T02:13:49.245Z,19.32
2018-06-09T02:16:18.246Z,19.28
2018-06-09T02:18:48.150Z,19.33
2018-06-09T02:21:17.204Z,19.30
2018-06-09T02:23:46.231Z,19.28
2018-06-09T02:26:15.250Z,19.20
2018-06-09T02:28:44.271Z,19.15
2018-06-09T02:31:13.387Z,19.09
2018-06-09T02:33:42.650Z,19.06
2018-06-09T02:36:11.953Z,19.02
2018-06-09T02:38:41.019Z,19.01
2018-06-09T02:41:10.023Z,19.00
2018-06-09T02:43:39.107Z,18.97
2018-06-09T02:46:08.139Z,18.89
2018-06-09T02:48:37.120Z,18.81
2018-06-09T02:51:06.488Z,18.77
2018-06-09T02:53:35.548Z,18.74
2018-06-09T02:56:05.270Z,18.78
2018-06-09T02:58:34.225Z,18.76
2018-06-09T03:01:03.276Z,18.74
2018-06-09T03:03:32.259Z,18.80
2018-06-09T03:06:01.269Z,18.82
2018-06-09T03:08:30.415Z,18.79
2018-06-09T03:10:59.464Z,18.76
2018-06-09T03:13:28.637Z,18.76
2018-06-09T03:15:57.679Z,18.76
2018-06-09T03:18:26.801Z,18.75
2018-06-09T03:20:55.918Z,18.77
2018-06-09T03:23:24.884Z,18.74
2018-06-09T03:25:53.927Z,18.78
2018-06-09T03:28:22.912Z,18.86
2018-06-09T03:30:52.397Z,18.87
2018-06-09T03:33:21.432Z,18.93
2018-06-09T03:35:50.459Z,18.91
2018-06-09T03:38:19.445Z,18.96
2018-06-09T03:40:48.419Z,18.96
2018-06-09T03:43:17.437Z,18.93
2018-06-09T03:45:46.434Z,18.96
2018-06-09T03:48:15.542Z,19.08
2018-06-09T03:50:44.526Z,19.12
2018-06-09T03:53:13.515Z,19.20
2018-06-09T03:55:42.681Z,19.23
2018-06-09T03:58:12.056Z,19.35
2018-06-09T04:00:41.796Z,19.44
2018-06-09T04:03:10.856Z,19.50
2018-06-09T04:05:39.840Z,19.55
2018-06-09T04:08:08.836Z,19.60
2018-06-09T04:10:37.820Z,19.65
2018-06-09T04:13:11.059Z,19.73
2018-06-09T04:15:40.476Z,19.69
2018-06-09T04:18:09.859Z,19.69
2018-06-09T04:20:39.116Z,19.67
2018-06-09T04:23:08.224Z,19.69
2018-06-09T04:25:37.245Z,19.74
2018-06-09T04:28:06.320Z,19.70
2018-06-09T04:30:35.359Z,19.67
2018-06-09T04:33:04.416Z,19.67
2018-06-09T04:35:33.421Z,19.66
2018-06-09T04:38:02.447Z,19.67
2018-06-09T04:40:31.688Z,19.68
2018-06-09T04:43:01.295Z,19.77
2018-06-09T04:45:30.399Z,19.75
2018-06-09T04:47:59.536Z,19.77
2018-06-09T04:50:28.575Z,19.91
2018-06-09T04:52:57.713Z,19.97
2018-06-09T04:55:26.762Z,20.08
2018-06-09T04:57:55.842Z,20.09
2018-06-09T05:00:24.849Z,20.13
2018-06-09T05:02:54.143Z,20.27
2018-06-09T05:05:23.161Z,20.36
2018-06-09T05:07:52.139Z,20.57
2018-06-09T05:10:21.099Z,20.68
2018-06-09T05:12:50.168Z,20.80
2018-06-09T05:15:19.165Z,20.76
2018-06-09T05:17:48.228Z,20.79
2018-06-09T05:20:17.248Z,20.86
2018-06-09T05:22:47.329Z,20.88
2018-06-09T05:25:17.026Z,20.99
2018-06-09T05:27:46.079Z,21.08
2018-06-09T05:30:15.065Z,21.20
2018-06-09T05:32:44.201Z,21.27
2018-06-09T05:35:13.294Z,21.40
2018-06-09T05:37:42.304Z,21.59
2018-06-09T05:40:11.317Z,21.64
2018-06-09T05:42:40.398Z,21.62
2018-06-09T05:45:09.427Z,21.73
2018-06-09T05:47:38.562Z,21.72
2018-06-09T05:50:07.634Z,21.83
2018-06-09T05:52:36.678Z,21.88
2018-06-09T05:55:10.158Z,22.16
2018-06-09T05:57:39.267Z,22.18
2018-06-09T06:00:08.252Z,22.40
2018-06-09T06:02:37.321Z,22.41
2018-06-09T06:05:06.521Z,22.77
2018-06-09T06:07:35.536Z,23.04
2018-06-09T06:10:04.544Z,23.22
2018-06-09T06:12:33.579Z,23.49
2018-06-09T06:15:02.638Z,23.49
2018-06-09T06:17:31.643Z,23.79
2018-06-09T06:20:00.861Z,24.11
2018-06-09T06:22:30.204Z,24.17
2018-06-09T06:24:59.755Z,24.42
2018-06-09T06:27:28.746Z,24.59
2018-06-09T06:29:57.864Z,24.80
2018-06-09T06:32:27.287Z,25.02
2018-06-09T06:34:56.267Z,25.32
2018-06-09T06:37:25.219Z,26.36
2018-06-09T06:39:54.208Z,27.10
2018-06-09T06:42:23.199Z,26.85
2018-06-09T06:44:52.201Z,27.40
2018-06-09T06:47:21.226Z,28.27
2018-06-09T06:49:50.221Z,28.60
2018-06-09T06:52:19.527Z,28.48
2018-06-09T06:54:48.556Z,28.24
2018-06-09T06:57:17.561Z,28.38
2018-06-09T06:59:46.627Z,28.96
2018-06-09T07:02:15.675Z,29.65
2018-06-09T07:04:44.775Z,30.26
2018-06-09T07:07:13.769Z,30.37
2018-06-09T07:09:42.799Z,30.69
2018-06-09T07:12:11.796Z,30.52
2018-06-09T07:14:41.448Z,30.25
2018-06-09T07:17:10.479Z,30.18
2018-06-09T07:19:39.507Z,29.97
2018-06-09T07:22:08.623Z,29.73
2018-06-09T07:24:37.544Z,30.73
2018-06-09T07:27:06.574Z,31.22
2018-06-09T07:29:35.557Z,30.58
2018-06-09T07:32:04.584Z,30.82
2018-06-09T07:34:33.549Z,31.00
2018-06-09T07:37:02.704Z,31.47
2018-06-09T07:39:31.688Z,31.63
2018-06-09T07:42:00.729Z,32.04
2018-06-09T07:44:29.730Z,32.04
2018-06-09T07:46:58.758Z,33.30
2018-06-09T07:49:27.757Z,33.23
2018-06-09T07:51:56.714Z,33.61
2018-06-09T07:54:25.688Z,33.47
2018-06-09T07:56:54.698Z,32.63
2018-06-09T07:59:23.691Z,32.16
2018-06-09T08:01:52.708Z,31.98
2018-06-09T08:04:21.850Z,31.38
2018-06-09T08:06:50.931Z,32.24
2018-06-09T08:09:19.899Z,31.19
2018-06-09T08:11:49.046Z,31.69
2018-06-09T08:14:18.347Z,32.01
2018-06-09T08:16:47.560Z,33.41
2018-06-09T08:19:16.568Z,33.26
2018-06-09T08:21:45.528Z,34.15
2018-06-09T08:24:15.301Z,35.32
2018-06-09T08:26:44.312Z,34.79
2018-06-09T08:29:13.419Z,35.40
2018-06-09T08:31:42.397Z,35.20
2018-06-09T08:34:11.386Z,34.99
2018-06-09T08:36:40.383Z,35.07
2018-06-09T08:39:09.441Z,35.16
2018-06-09T08:41:38.457Z,34.96
2018-06-09T08:44:07.468Z,34.32
2018-06-09T08:46:36.468Z,34.12
2018-06-09T08:49:05.490Z,34.32
2018-06-09T08:51:34.506Z,34.60
2018-06-09T08:54:03.549Z,34.86
2018-06-09T08:56:32.532Z,36.08
2018-06-09T08:59:01.554Z,36.01
2018-06-09T09:01:30.876Z,35.24
2018-06-09T09:03:59.875Z,34.57
2018-06-09T09:06:28.835Z,35.51
2018-06-09T09:08:57.911Z,35.81
2018-06-09T09:11:26.864Z,35.27
2018-06-09T09:13:55.837Z,35.65
2018-06-09T09:16:24.861Z,35.76
2018-06-09T09:18:53.857Z,34.94
2018-06-09T09:21:22.863Z,34.77
2018-06-09T09:23:51.986Z,35.51
2018-06-09T09:26:21.018Z,35.15
2018-06-09T09:28:50.001Z,34.41
2018-06-09T09:31:19.101Z,33.60
2018-06-09T09:33:49.784Z,33.54
2018-06-09T09:36:18.831Z,33.40
2018-06-09T09:38:47.887Z,33.80
2018-06-09T09:41:16.977Z,33.94
2018-06-09T09:43:46.667Z,34.55
2018-06-09T09:46:15.662Z,35.59
2018-06-09T09:48:45.604Z,34.79
2018-06-09T09:51:14.572Z,33.65
2018-06-09T09:53:43.600Z,34.46
2018-06-09T09:56:12.613Z,34.81
2018-06-09T09:58:41.591Z,34.47
2018-06-09T10:01:10.662Z,34.41
2018-06-09T10:03:39.776Z,35.20
2018-06-09T10:06:08.782Z,35.70
2018-06-09T10:08:37.774Z,35.09
2018-06-09T10:11:07.167Z,34.99
2018-06-09T10:13:36.183Z,35.25
2018-06-09T10:16:05.333Z,35.53
2018-06-09T10:18:34.429Z,35.26
2018-06-09T10:21:03.433Z,35.82
2018-06-09T10:23:32.413Z,36.01
2018-06-09T10:26:01.401Z,36.05
2018-06-09T10:28:30.430Z,36.29
2018-06-09T10:30:59.443Z,36.13
2018-06-09T10:33:28.423Z,35.91
2018-06-09T10:35:57.442Z,35.54
2018-06-09T10:38:26.399Z,35.05
2018-06-09T10:40:55.413Z,35.18
2018-06-09T10:43:24.376Z,34.32
2018-06-09T10:45:53.423Z,34.22
2018-06-09T10:48:22.470Z,33.84
2018-06-09T10:50:51.456Z,34.12
2018-06-09T10:53:20.478Z,33.40
2018-06-09T10:55:49.505Z,33.03
2018-06-09T10:58:18.504Z,32.68
2018-06-09T11:00:47.515Z,33.06
2018-06-09T11:03:16.504Z,33.56
2018-06-09T11:05:45.501Z,34.07
2018-06-09T11:08:14.550Z,34.37
2018-06-09T11:10:43.514Z,34.63
2018-06-09T11:13:12.543Z,34.50
2018-06-09T11:15:41.594Z,34.90
2018-06-09T11:18:10.593Z,35.22
2018-06-09T11:20:39.626Z,34.80
2018-06-09T11:23:08.609Z,34.65
2018-06-09T11:25:37.687Z,34.78
2018-06-09T11:28:06.730Z,34.40
2018-06-09T11:30:35.801Z,34.03
2018-06-09T11:33:04.848Z,34.28
2018-06-09T11:35:33.950Z,34.35
2018-06-09T11:38:03.086Z,34.59
2018-06-09T11:40:32.188Z,34.68
2018-06-09T11:43:01.370Z,35.18
2018-06-09T11:45:30.343Z,35.12
2018-06-09T11:47:59.419Z,35.21
2018-06-09T11:50:28.399Z,34.69
2018-06-09T11:52:57.449Z,35.19
2018-06-09T11:55:26.548Z,35.08
2018-06-09T11:57:55.606Z,34.91
2018-06-09T12:00:24.684Z,35.26
2018-06-09T12:02:53.796Z,35.56
2018-06-09T12:05:22.797Z,35.93
2018-06-09T12:07:51.794Z,35.98
2018-06-09T12:10:21.075Z,36.02
2018-06-09T12:12:50.095Z,36.79
2018-06-09T12:15:19.102Z,36.58
2018-06-09T12:17:48.118Z,36.15
2018-06-09T12:20:17.098Z,35.26
2018-06-09T12:22:46.088Z,34.58
2018-06-09T12:25:15.198Z,35.04
2018-06-09T12:27:44.159Z,34.46
2018-06-09T12:30:13.203Z,34.25
2018-06-09T12:32:42.192Z,33.83
2018-06-09T12:35:11.170Z,33.92
2018-06-09T12:37:40.243Z,33.27
2018-06-09T12:40:09.257Z,33.57
2018-06-09T12:42:38.267Z,33.14
2018-06-09T12:45:07.297Z,32.95
2018-06-09T12:47:36.324Z,33.01
2018-06-09T12:50:05.368Z,32.77
2018-06-09T12:52:34.365Z,32.72
2018-06-09T12:55:03.417Z,32.24
2018-06-09T12:57:32.440Z,31.98
2018-06-09T13:00:01.416Z,31.90
2018-06-09T13:02:30.398Z,32.43
2018-06-09T13:04:59.440Z,33.00
2018-06-09T13:07:28.426Z,33.28
2018-06-09T13:09:57.463Z,33.57
2018-06-09T13:12:26.439Z,33.44
2018-06-09T13:14:55.471Z,34.22
2018-06-09T13:17:24.450Z,34.25
2018-06-09T13:19:53.450Z,34.48
2018-06-09T13:22:22.433Z,34.90
2018-06-09T13:24:51.459Z,34.99
2018-06-09T13:27:20.407Z,35.18
2018-06-09T13:29:49.388Z,35.40
2018-06-09T13:32:18.342Z,36.30
2018-06-09T13:34:47.318Z,36.20
2018-06-09T13:37:16.431Z,35.88
2018-06-09T13:39:45.436Z,35.91
2018-06-09T13:42:14.410Z,35.55
2018-06-09T13:44:43.418Z,35.19
2018-06-09T13:47:12.494Z,35.10
2018-06-09T13:49:41.458Z,35.53
2018-06-09T13:52:10.479Z,35.61
2018-06-09T13:54:39.496Z,34.70
2018-06-09T13:57:08.465Z,33.96
2018-06-09T13:59:37.463Z,34.10
2018-06-09T14:02:06.501Z,33.77
2018-06-09T14:04:35.501Z,33.96
2018-06-09T14:07:04.545Z,33.98
2018-06-09T14:09:33.532Z,33.80
2018-06-09T14:12:02.547Z,33.58
2018-06-09T14:14:31.534Z,33.67
2018-06-09T14:17:00.562Z,33.70
2018-06-09T14:19:29.655Z,33.93
2018-06-09T14:21:58.619Z,34.18
2018-06-09T14:24:27.615Z,34.25
2018-06-09T14:26:56.651Z,34.42
2018-06-09T14:29:25.601Z,34.51
2018-06-09T14:31:54.673Z,34.51
2018-06-09T14:34:23.723Z,33.92
2018-06-09T14:36:52.806Z,34.37
2018-06-09T14:39:21.920Z,33.94
2018-06-09T14:41:50.961Z,33.29
2018-06-09T14:44:20.092Z,33.35
2018-06-09T14:46:49.121Z,33.53
2018-06-09T14:49:18.279Z,33.91
2018-06-09T14:51:47.300Z,34.22
2018-06-09T14:54:16.273Z,33.73
2018-06-09T14:56:45.226Z,33.53
2018-06-09T14:59:18.890Z,33.28
2018-06-09T15:01:48.044Z,33.12
2018-06-09T15:04:17.107Z,32.92
2018-06-09T15:06:46.225Z,32.99
2018-06-09T15:09:15.218Z,33.04
2018-06-09T15:11:44.191Z,32.92
2018-06-09T15:14:13.237Z,32.55
2018-06-09T15:16:42.205Z,32.17
2018-06-09T15:19:11.528Z,32.08
2018-06-09T15:21:40.527Z,32.30
2018-06-09T15:24:10.120Z,31.95
2018-06-09T15:26:39.298Z,31.75
2018-06-09T15:29:08.381Z,31.79
2018-06-09T15:31:37.444Z,30.93
2018-06-09T15:34:06.495Z,30.27
2018-06-09T15:36:35.501Z,30.05
2018-06-09T15:39:07.064Z,29.29
2018-06-09T15:41:36.112Z,29.15
2018-06-09T15:44:05.413Z,28.75
2018-06-09T15:46:34.947Z,28.71
2018-06-09T15:49:03.921Z,28.75
2018-06-09T15:51:32.938Z,28.58
2018-06-09T15:54:01.961Z,28.36
2018-06-09T15:56:31.023Z,27.66
2018-06-09T15:59:00.155Z,27.79
2018-06-09T16:01:29.116Z,27.68
2018-06-09T16:03:58.184Z,27.76
2018-06-09T16:06:27.447Z,27.46
2018-06-09T16:08:56.569Z,25.75
2018-06-09T16:11:25.549Z,25.48
2018-06-09T16:13:54.569Z,25.64
2018-06-09T16:16:23.800Z,25.09
2018-06-09T16:18:52.899Z,24.74
2018-06-09T16:21:22.192Z,25.05
2018-06-09T16:23:51.411Z,24.80
2018-06-09T16:26:20.498Z,24.75
2018-06-09T16:28:49.735Z,24.71
2018-06-09T16:31:18.820Z,25.08
2018-06-09T16:33:47.962Z,25.25
2018-06-09T16:36:18.343Z,25.30
2018-06-09T16:38:47.411Z,25.26
2018-06-09T16:41:16.449Z,24.81
2018-06-09T16:43:45.420Z,24.59
2018-06-09T16:46:14.435Z,24.69
2018-06-09T16:48:43.499Z,24.78
2018-06-09T16:51:12.476Z,24.95
2018-06-09T16:53:41.508Z,25.07
2018-06-09T16:56:10.987Z,25.13
2018-06-09T16:58:39.980Z,25.17
2018-06-09T17:01:09.045Z,25.13
2018-06-09T17:03:38.007Z,25.10
2018-06-09T17:06:07.036Z,25.08
2018-06-09T17:08:36.190Z,25.11
2018-06-09T17:11:05.182Z,25.03
2018-06-09T17:13:34.206Z,25.22
2018-06-09T17:16:03.306Z,25.15
2018-06-09T17:18:32.382Z,24.98
2018-06-09T17:21:01.383Z,24.86
2018-06-09T17:23:30.346Z,24.80
2018-06-09T17:25:59.314Z,24.78
2018-06-09T17:28:28.430Z,24.89
2018-06-09T17:30:57.436Z,24.86
2018-06-09T17:33:26.502Z,24.85
2018-06-09T17:35:55.582Z,24.85
2018-06-09T17:38:24.742Z,24.81
2018-06-09T17:40:53.743Z,24.91
2018-06-09T17:43:22.746Z,24.91
2018-06-09T17:45:51.784Z,24.86
2018-06-09T17:48:20.792Z,24.80
2018-06-09T17:50:49.766Z,24.78
2018-06-09T17:53:18.827Z,24.71
2018-06-09T17:55:47.796Z,24.77
2018-06-09T17:58:16.979Z,24.74
2018-06-09T18:00:47.197Z,24.68
2018-06-09T18:03:16.649Z,24.60
2018-06-09T18:05:45.799Z,24.56
2018-06-09T18:08:14.773Z,24.54
2018-06-09T18:10:44.037Z,24.51
2018-06-09T18:13:13.021Z,24.37
2018-06-09T18:15:42.027Z,24.29
2018-06-09T18:18:11.014Z,24.28
2018-06-09T18:20:40.009Z,24.22
2018-06-09T18:23:08.993Z,24.18
2018-06-09T18:25:37.993Z,24.21
2018-06-09T18:28:07.128Z,24.15
2018-06-09T18:30:36.193Z,24.09
2018-06-09T18:33:05.280Z,24.06
2018-06-09T18:35:34.347Z,24.05
2018-06-09T18:38:03.368Z,24.07
2018-06-09T18:40:32.502Z,24.06
2018-06-09T18:43:01.586Z,24.07
2018-06-09T18:45:30.665Z,24.09
2018-06-09T18:47:59.667Z,24.01
2018-06-09T18:50:28.722Z,23.99
2018-06-09T18:52:57.703Z,23.99
2018-06-09T18:55:26.693Z,24.03
2018-06-09T18:57:55.688Z,23.86
2018-06-09T19:00:24.714Z,23.79
2018-06-09T19:02:53.712Z,23.84
2018-06-09T19:05:22.784Z,23.81
2018-06-09T19:07:51.816Z,23.77
2018-06-09T19:10:20.925Z,23.72
2018-06-09T19:12:49.925Z,23.68
2018-06-09T19:15:19.011Z,23.56
2018-06-09T19:17:48.064Z,23.60
2018-06-09T19:20:17.434Z,23.61
2018-06-09T19:22:46.438Z,23.48
2018-06-09T19:25:15.465Z,23.41
2018-06-09T19:27:44.563Z,23.41
2018-06-09T19:30:13.552Z,23.51
2018-06-09T19:32:42.588Z,23.55
2018-06-09T19:35:11.621Z,23.52
2018-06-09T19:37:40.595Z,23.47
2018-06-09T19:40:09.715Z,23.50
2018-06-09T19:42:38.687Z,23.55
2018-06-09T19:45:07.640Z,23.57
2018-06-09T19:47:36.645Z,23.48
2018-06-09T19:50:05.723Z,23.36
2018-06-09T19:52:34.733Z,23.32
2018-06-09T19:55:03.712Z,23.38
2018-06-09T19:57:32.762Z,23.37
2018-06-09T20:00:01.807Z,23.38
2018-06-09T20:02:30.802Z,23.37
2018-06-09T20:04:59.941Z,23.35
2018-06-09T20:07:29.051Z,23.33
2018-06-09T20:09:58.013Z,23.25
2018-06-09T20:12:27.022Z,23.29
2018-06-09T20:14:56.049Z,23.25
2018-06-09T20:17:25.128Z,23.19
2018-06-09T20:19:54.152Z,23.14
2018-06-09T20:22:23.251Z,23.00
2018-06-09T20:24:52.308Z,22.93
2018-06-09T20:27:21.361Z,22.85
2018-06-09T20:29:50.428Z,22.69
2018-06-09T20:32:19.484Z,22.66
2018-06-09T20:34:48.529Z,22.58
2018-06-09T20:37:17.569Z,22.55
2018-06-09T20:39:46.627Z,22.54
2018-06-09T20:42:15.679Z,22.46
2018-06-09T20:44:44.688Z,22.48
2018-06-09T20:47:13.657Z,22.48
2018-06-09T20:49:42.663Z,22.47
2018-06-09T20:52:11.646Z,22.45
2018-06-09T20:54:40.759Z,22.47
2018-06-09T20:57:09.739Z,22.43
2018-06-09T20:59:38.724Z,22.39
2018-06-09T21:02:07.776Z,22.38
2018-06-09T21:04:36.764Z,22.40
2018-06-09T21:07:05.790Z,22.43
2018-06-09T21:09:34.788Z,22.41
2018-06-09T21:12:03.808Z,22.39
2018-06-09T21:14:32.883Z,22.34
2018-06-09T21:17:01.886Z,22.33
2018-06-09T21:19:30.940Z,22.26
2018-06-09T21:21:59.962Z,22.29
2018-06-09T21:24:29.030Z,22.30
2018-06-09T21:27:03.569Z,22.32
2018-06-09T21:29:38.639Z,22.32
2018-06-09T21:32:09.134Z,22.33
2018-06-09T21:34:54.874Z,22.29
2018-06-09T21:37:29.468Z,22.18
2018-06-09T21:40:01.592Z,22.17
2018-06-09T21:42:35.760Z,22.16
2018-06-09T21:45:09.479Z,22.12
2018-06-09T21:47:38.480Z,22.09
2018-06-09T21:50:07.480Z,21.95
2018-06-09T21:52:36.525Z,21.88
2018-06-09T21:55:05.528Z,21.84
2018-06-09T21:57:34.615Z,21.82
2018-06-09T22:00:03.783Z,21.80
2018-06-09T22:02:32.779Z,21.76
2018-06-09T22:05:01.902Z,21.77
2018-06-09T22:07:30.901Z,21.76
2018-06-09T22:09:59.931Z,21.74
2018-06-09T22:12:28.986Z,21.70
2018-06-09T22:14:57.922Z,21.62
2018-06-09T22:17:26.941Z,21.59
2018-06-09T22:19:55.957Z,21.55
2018-06-09T22:22:24.946Z,21.49
2018-06-09T22:24:53.917Z,21.46
2018-06-09T22:27:22.871Z,21.41
2018-06-09T22:29:51.832Z,21.37
2018-06-09T22:32:20.813Z,21.28
2018-06-09T22:34:49.889Z,21.27
2018-06-09T22:37:18.930Z,21.19
2018-06-09T22:39:47.955Z,21.05
2018-06-09T22:42:16.987Z,21.03
2018-06-09T22:44:45.976Z,20.94
2018-06-09T22:47:14.936Z,20.85
2018-06-09T22:49:43.921Z,20.82
2018-06-09T22:52:12.968Z,20.83
2018-06-09T22:54:41.997Z,20.76
2018-06-09T22:57:10.996Z,20.71
2018-06-09T22:59:39.968Z,20.67
2018-06-09T23:02:09.011Z,20.67
2018-06-09T23:04:38.037Z,20.64
2018-06-09T23:07:07.045Z,20.62
2018-06-09T23:09:36.033Z,20.59
2018-06-09T23:12:05.202Z,20.52
2018-06-09T23:14:34.227Z,20.51
2018-06-09T23:17:03.316Z,20.50
2018-06-09T23:19:32.385Z,20.51
2018-06-09T23:22:01.383Z,20.54
2018-06-09T23:24:30.340Z,20.44
2018-06-09T23:26:59.312Z,20.42
2018-06-09T23:29:28.371Z,20.39
2018-06-09T23:31:57.345Z,20.27
2018-06-09T23:34:26.430Z,20.24
2018-06-09T23:36:55.597Z,20.18
2018-06-09T23:39:24.571Z,20.17
2018-06-09T23:41:53.605Z,20.10
2018-06-09T23:44:22.627Z,20.09
2018-06-09T23:46:51.645Z,20.07
2018-06-09T23:49:20.628Z,20.03
2018-06-09T23:51:49.601Z,20.00
2018-06-09T23:54:18.623Z,19.94
2018-06-09T23:56:47.574Z,19.91
2018-06-09T23:59:16.551Z,19.88
